KHVR/HVR METAR and TAF weather

Enter ICAO airport designator
Station Type Date Time Source
KHVR METAR 2019/04/22 19:53 UTC NOAA

KHVR 221953Z AUTO 21018G26KT 10SM CLR 18/00 A3007 RMK AO2 PK WND 22026/1951 SLP187 T01830000


Station Type Date Time Source
KHVR Decoded METAR 2019/04/22 19:53 UTC NOAA

HAVRE CITY-COUNTY AIRPORT, MT, United States (KHVR) 48-33N 109-46W 787M
Apr 22, 2019 - 03:53 PM EDT / 2019.04.22 1953 UTC
Wind: from the SSW (210 degrees) at 21 MPH (18 KT) gusting to 30 MPH (26 KT):0
Visibility: 10 mile(s):0
Sky conditions: clear
Temperature: 64.9 F (18.3 C)
Dew Point: 32.0 F (0.0 C)
Relative Humidity: 29%
Pressure (altimeter): 30.07 in. Hg (1018 hPa)
ob: KHVR 221953Z AUTO 21018G26KT 10SM CLR 18/00 A3007 RMK AO2 PK WND 22026/1951 SLP187 T01830000
cycle: 20

Station Type Date Time Source
KHVR TAF 2019/04/22 18:39 UTC NOAA

TAF
AMD KHVR 221736Z 2218/2318 VRB06KT P6SM FEW250
TEMPO 2218/2220 22015G25KT
FM222000 22010G20KT P6SM FEW150 SCT250
FM230100 25010KT P6SM FEW150 BKN250
FM231200 26012G22KT P6SM SCT080 BKN100

Example: see airport list